createdAt,value
2023-04-27T00:01:40.108Z,0
2023-04-27T00:03:40.225Z,0
2023-04-27T00:04:40.246Z,0
2023-04-27T00:05:40.265Z,0
2023-04-27T00:06:40.045Z,0
2023-04-27T00:07:40.093Z,0
2023-04-27T00:09:40.030Z,0
2023-04-27T00:10:40.049Z,0
2023-04-27T00:11:40.042Z,0
2023-04-27T00:12:40.062Z,0
2023-04-27T00:14:40.040Z,0
2023-04-27T00:15:40.049Z,0
2023-04-27T00:16:40.068Z,0
2023-04-27T00:17:40.079Z,0
2023-04-27T00:18:41.512Z,0
2023-04-27T00:19:44.286Z,0
2023-04-27T00:20:47.281Z,0
2023-04-27T00:22:40.237Z,0
2023-04-27T00:24:40.058Z,0
2023-04-27T00:25:40.059Z,0
2023-04-27T00:26:40.054Z,0
2023-04-27T00:27:40.073Z,0
2023-04-27T00:29:40.041Z,0
2023-04-27T00:30:40.046Z,0
2023-04-27T00:31:40.103Z,0
2023-04-27T00:33:40.048Z,0
2023-04-27T00:34:40.056Z,0
2023-04-27T00:35:40.041Z,0
2023-04-27T00:36:40.109Z,0
2023-04-27T00:38:40.049Z,0
2023-04-27T00:39:41.593Z,0
2023-04-27T00:40:44.372Z,0
2023-04-27T00:41:47.351Z,0
2023-04-27T00:43:40.188Z,0
2023-04-27T00:44:40.124Z,0
2023-04-27T00:45:40.060Z,0
2023-04-27T00:46:40.048Z,0
2023-04-27T00:47:40.068Z,0
2023-04-27T00:48:40.039Z,0
2023-04-27T00:49:40.043Z,0
2023-04-27T00:50:40.049Z,0
2023-04-27T00:51:40.042Z,0
2023-04-27T00:52:40.055Z,0
2023-04-27T00:53:40.167Z,0
2023-04-27T00:55:40.043Z,0
2023-04-27T00:56:40.046Z,0
2023-04-27T00:57:40.060Z,0
2023-04-27T00:58:40.048Z,0
2023-04-27T00:59:40.052Z,0
2023-04-27T01:00:41.070Z,0
2023-04-27T01:01:44.676Z,0
2023-04-27T01:02:47.531Z,0
2023-04-27T01:04:40.066Z,0
2023-04-27T01:05:40.050Z,0
2023-04-27T01:06:40.029Z,0
2023-04-27T01:07:40.070Z,0
2023-04-27T01:09:40.038Z,0
2023-04-27T01:10:40.042Z,0
2023-04-27T01:12:40.065Z,0
2023-04-27T01:14:40.250Z,0
2023-04-27T01:16:40.106Z,0
2023-04-27T01:17:40.107Z,0
2023-04-27T01:18:40.040Z,0
2023-04-27T01:19:40.051Z,0
2023-04-27T01:20:40.047Z,0
2023-04-27T01:21:41.747Z,0
2023-04-27T01:22:44.574Z,0
2023-04-27T01:23:47.584Z,0
2023-04-27T01:25:40.061Z,0
2023-04-27T01:27:40.042Z,0
2023-04-27T01:28:40.041Z,0
2023-04-27T01:29:40.039Z,0
2023-04-27T01:30:40.074Z,0
2023-04-27T01:32:40.064Z,0
2023-04-27T01:33:40.050Z,0
2023-04-27T01:34:40.028Z,0
2023-04-27T01:35:40.058Z,0
2023-04-27T01:36:40.045Z,0
2023-04-27T01:38:40.049Z,0
2023-04-27T01:39:40.044Z,0
2023-04-27T01:40:40.041Z,0
2023-04-27T01:41:40.037Z,0
2023-04-27T01:42:41.856Z,0
2023-04-27T01:43:44.678Z,0
2023-04-27T01:44:47.637Z,0
2023-04-27T01:46:40.133Z,0
2023-04-27T01:47:40.086Z,0
2023-04-27T01:48:40.047Z,0
2023-04-27T01:49:40.059Z,0
2023-04-27T01:50:40.042Z,0
2023-04-27T01:51:40.067Z,0
2023-04-27T01:53:40.050Z,0
2023-04-27T01:54:40.051Z,0
2023-04-27T01:55:40.042Z,0
2023-04-27T01:56:40.083Z,0
2023-04-27T01:58:40.054Z,0
2023-04-27T01:59:40.048Z,0
2023-04-27T02:00:40.068Z,0
2023-04-27T02:01:40.101Z,0
2023-04-27T02:03:42.155Z,0
2023-04-27T02:04:44.898Z,0
2023-04-27T02:06:40.063Z,0
2023-04-27T02:07:40.044Z,0
2023-04-27T02:08:40.041Z,0
2023-04-27T02:09:40.082Z,0
2023-04-27T02:10:40.048Z,0
2023-04-27T02:11:40.059Z,0
2023-04-27T02:13:40.040Z,0
2023-04-27T02:14:40.051Z,0
2023-04-27T02:15:40.050Z,0
2023-04-27T02:16:40.081Z,0
2023-04-27T02:17:40.072Z,0
2023-04-27T02:18:40.053Z,0
2023-04-27T02:19:40.045Z,0
2023-04-27T02:20:40.049Z,0
2023-04-27T02:21:40.060Z,0
2023-04-27T02:22:40.036Z,0
2023-04-27T02:23:40.039Z,0
2023-04-27T02:24:41.966Z,0
2023-04-27T02:25:44.883Z,0
2023-04-27T02:27:40.056Z,0
2023-04-27T02:28:40.025Z,0
2023-04-27T02:29:40.052Z,0
2023-04-27T02:30:40.070Z,0
2023-04-27T02:32:40.076Z,0
2023-04-27T02:33:40.044Z,0
2023-04-27T02:34:40.040Z,0
2023-04-27T02:35:40.071Z,0
2023-04-27T02:37:40.046Z,0
2023-04-27T02:38:40.059Z,0
2023-04-27T02:40:40.065Z,0
2023-04-27T02:42:40.048Z,0
2023-04-27T02:44:40.043Z,0
2023-04-27T02:45:40.062Z,0
2023-04-27T02:46:42.255Z,0
2023-04-27T02:47:45.130Z,0
2023-04-27T02:49:40.046Z,0
2023-04-27T02:50:40.063Z,0
2023-04-27T02:52:40.054Z,0
2023-04-27T02:53:40.098Z,0
2023-04-27T02:55:40.070Z,0
2023-04-27T02:57:40.040Z,0
2023-04-27T02:58:40.041Z,0
2023-04-27T02:59:40.193Z,0
2023-04-27T03:01:40.120Z,0
2023-04-27T03:02:40.225Z,0
2023-04-27T03:04:40.063Z,0
2023-04-27T03:05:40.041Z,0
2023-04-27T03:06:40.041Z,0
2023-04-27T03:07:42.277Z,0
2023-04-27T03:08:45.202Z,0
2023-04-27T03:10:40.055Z,0
2023-04-27T03:11:40.052Z,0
2023-04-27T03:13:40.052Z,0
2023-04-27T03:14:40.138Z,0
2023-04-27T03:16:40.117Z,0
2023-04-27T03:17:40.049Z,0
2023-04-27T03:18:40.040Z,0
2023-04-27T03:19:40.048Z,0
2023-04-27T03:20:40.087Z,0
2023-04-27T03:22:40.046Z,0
2023-04-27T03:23:40.045Z,0
2023-04-27T03:24:40.036Z,0.23
2023-04-27T03:25:40.067Z,0.23
2023-04-27T03:26:40.058Z,0.23
2023-04-27T03:28:42.354Z,0.46
2023-04-27T03:29:45.239Z,0.46
2023-04-27T03:31:40.086Z,0.69
2023-04-27T03:32:40.080Z,0.92
2023-04-27T03:33:40.036Z,0.92
2023-04-27T03:34:40.043Z,1.15
2023-04-27T03:35:40.241Z,1.61
2023-04-27T03:37:40.073Z,2.07
2023-04-27T03:38:40.066Z,2.53
2023-04-27T03:39:40.050Z,2.99
2023-04-27T03:40:40.042Z,3.68
2023-04-27T03:41:40.050Z,4.37
2023-04-27T03:42:40.073Z,5.06
2023-04-27T03:44:40.042Z,6.67
2023-04-27T03:45:40.128Z,7.36
2023-04-27T03:47:40.107Z,10.83
2023-04-27T03:49:42.424Z,14.17
2023-04-27T03:50:45.482Z,14.17
2023-04-27T03:52:40.056Z,22.5
2023-04-27T03:53:40.043Z,23.33
2023-04-27T03:54:40.050Z,28.33
2023-04-27T03:55:40.074Z,32.5
2023-04-27T03:57:40.051Z,39.17
2023-04-27T03:58:40.043Z,46.67
2023-04-27T03:59:40.054Z,51.67
2023-04-27T04:00:40.099Z,64.17
2023-04-27T04:02:40.153Z,64.17
2023-04-27T04:03:40.330Z,64.17
2023-04-27T04:05:40.034Z,97.5
2023-04-27T04:06:40.045Z,110.83
2023-04-27T04:07:40.047Z,124.17
2023-04-27T04:08:40.046Z,124.17
2023-04-27T04:09:40.064Z,145.83
2023-04-27T04:10:42.577Z,162.5
2023-04-27T04:11:45.412Z,162.5
2023-04-27T04:13:40.047Z,176.67
2023-04-27T04:14:40.041Z,208.33
2023-04-27T04:15:40.117Z,208.33
2023-04-27T04:16:40.043Z,208.33
2023-04-27T04:17:40.056Z,263.33
2023-04-27T04:18:40.057Z,263.33
2023-04-27T04:19:40.048Z,296.67
2023-04-27T04:20:40.093Z,317.5
2023-04-27T04:22:40.063Z,357.5
2023-04-27T04:23:40.040Z,357.5
2023-04-27T04:24:40.054Z,411.67
2023-04-27T04:25:40.050Z,450.83
2023-04-27T04:26:40.052Z,450.83
2023-04-27T04:27:40.043Z,466.67
2023-04-27T04:28:40.031Z,560
2023-04-27T04:29:40.040Z,580
2023-04-27T04:30:40.032Z,580
2023-04-27T04:31:42.773Z,647.5
2023-04-27T04:32:45.629Z,666.67
2023-04-27T04:34:40.052Z,724.17
2023-04-27T04:35:40.053Z,724.17
2023-04-27T04:36:40.056Z,769.17
2023-04-27T04:37:40.048Z,812.5
2023-04-27T04:38:40.053Z,830.83
2023-04-27T04:39:40.052Z,865.83
2023-04-27T04:40:40.066Z,892.5
2023-04-27T04:41:40.061Z,905.83
2023-04-27T04:43:40.050Z,927.5
2023-04-27T04:44:40.049Z,1003.33
2023-04-27T04:45:40.054Z,1021.67
2023-04-27T04:46:40.090Z,1045.83
2023-04-27T04:47:40.099Z,1075
2023-04-27T04:48:40.175Z,1100
2023-04-27T04:50:40.044Z,1140.83
2023-04-27T04:51:40.064Z,1140.83
2023-04-27T04:52:42.769Z,1168.33
2023-04-27T04:53:45.726Z,1220
2023-04-27T04:55:40.045Z,1279.17
2023-04-27T04:56:40.062Z,1287.5
2023-04-27T04:57:40.068Z,1331.67
2023-04-27T04:58:40.121Z,1331.67
2023-04-27T04:59:40.037Z,1342.5
2023-04-27T05:00:40.035Z,1397.5
2023-04-27T05:01:40.079Z,1404.17
2023-04-27T05:03:40.213Z,1454.17
2023-04-27T05:04:40.152Z,1478.33
2023-04-27T05:05:40.043Z,1482.5
2023-04-27T05:06:40.054Z,1482.5
2023-04-27T05:08:40.061Z,1556.67
2023-04-27T05:09:40.044Z,1556.67
2023-04-27T05:10:40.032Z,1556.67
2023-04-27T05:11:40.138Z,1556.67
2023-04-27T05:13:42.340Z,1619.17
2023-04-27T05:14:45.207Z,1662.5
2023-04-27T05:16:40.147Z,1714.17
2023-04-27T05:17:40.063Z,1733.33
2023-04-27T05:18:40.064Z,1759.17
2023-04-27T05:19:40.054Z,1772.5
2023-04-27T05:20:40.049Z,1786.67
2023-04-27T05:22:40.036Z,1786.67
2023-04-27T05:23:40.056Z,1833.33
2023-04-27T05:25:40.039Z,1862.5
2023-04-27T05:26:40.049Z,1885
2023-04-27T05:28:40.075Z,1920
2023-04-27T05:30:40.038Z,1950.83
2023-04-27T05:31:40.071Z,1968.33
2023-04-27T05:32:40.075Z,1985.83
2023-04-27T05:33:40.072Z,2005
2023-04-27T05:34:42.446Z,2025.83
2023-04-27T05:35:45.885Z,2031.67
2023-04-27T05:37:40.051Z,2080
2023-04-27T05:38:40.136Z,2100.83
2023-04-27T05:39:40.085Z,2100.83
2023-04-27T05:40:40.060Z,2140
2023-04-27T05:41:40.067Z,2145.83
2023-04-27T05:43:40.039Z,2182.5
2023-04-27T05:44:40.057Z,2215
2023-04-27T05:45:40.079Z,2225
2023-04-27T05:46:40.074Z,2241.67
2023-04-27T05:47:40.089Z,2262.5
2023-04-27T05:49:40.036Z,2285.83
2023-04-27T05:50:40.052Z,2320
2023-04-27T05:51:40.065Z,2340
2023-04-27T05:53:40.072Z,2360
2023-04-27T05:54:40.088Z,2375.83
2023-04-27T05:55:42.993Z,2396.67
2023-04-27T05:56:45.989Z,2406.67
2023-04-27T05:58:40.061Z,2455.83
2023-04-27T05:59:40.042Z,2464.17
2023-04-27T06:00:40.060Z,2485.83
2023-04-27T06:01:40.062Z,2499.17
2023-04-27T06:02:40.161Z,2505
2023-04-27T06:03:40.191Z,2533.33
2023-04-27T06:05:40.136Z,2560.83
2023-04-27T06:07:40.037Z,2618.33
2023-04-27T06:09:40.042Z,2675
2023-04-27T06:10:40.090Z,2725
2023-04-27T06:11:40.083Z,2759.17
2023-04-27T06:12:40.043Z,2782.5
2023-04-27T06:13:40.063Z,2795
2023-04-27T06:14:40.066Z,2811.67
2023-04-27T06:15:40.070Z,2826.67
2023-04-27T06:16:41.032Z,2848.33
2023-04-27T06:17:44.140Z,2862.5
2023-04-27T06:18:46.369Z,2865.83
2023-04-27T06:20:40.067Z,2902.5
2023-04-27T06:22:40.064Z,2934.17
2023-04-27T06:23:40.045Z,2955.83
2023-04-27T06:24:40.052Z,2970.83
2023-04-27T06:25:40.368Z,2987.5
2023-04-27T06:26:40.056Z,2997.5
2023-04-27T06:27:40.060Z,3024.17
2023-04-27T06:28:40.068Z,3052.5
2023-04-27T06:29:40.037Z,3070.83
2023-04-27T06:30:40.041Z,3091.67
2023-04-27T06:31:40.140Z,3120.83
2023-04-27T06:33:40.049Z,3201.67
2023-04-27T06:34:40.034Z,3247.5
2023-04-27T06:35:40.047Z,3287.5
2023-04-27T06:36:40.058Z,3287.5
2023-04-27T06:37:41.058Z,3385.83
2023-04-27T06:38:44.191Z,3450
2023-04-27T06:39:47.069Z,3472.5
2023-04-27T06:41:40.081Z,3522.5
2023-04-27T06:43:40.040Z,3836.67
2023-04-27T06:44:40.043Z,3963.33
2023-04-27T06:45:40.044Z,4126.67
2023-04-27T06:46:40.167Z,4333.33
2023-04-27T06:47:40.072Z,4623.33
2023-04-27T06:48:40.035Z,4835
2023-04-27T06:49:40.051Z,4835
2023-04-27T06:50:40.047Z,5187.5
2023-04-27T06:51:40.062Z,7399.17
2023-04-27T06:52:40.058Z,9705.83
2023-04-27T06:53:40.038Z,10997.5
2023-04-27T06:54:40.035Z,11695.83
2023-04-27T06:55:42.423Z,13839.17
2023-04-27T06:56:40.057Z,13850
2023-04-27T06:57:40.043Z,13850
2023-04-27T06:58:41.135Z,13850
2023-04-27T06:59:43.603Z,14890
2023-04-27T07:00:46.580Z,15238.33
2023-04-27T07:02:40.124Z,15645.83
2023-04-27T07:04:40.055Z,15810
2023-04-27T07:05:40.111Z,16349.17
2023-04-27T07:07:40.040Z,16558.33
2023-04-27T07:08:40.050Z,16599.17
2023-04-27T07:09:40.049Z,16687.5
2023-04-27T07:10:40.054Z,16870
2023-04-27T07:12:40.052Z,17244.17
2023-04-27T07:13:40.040Z,17470.83
2023-04-27T07:14:40.101Z,17526.67
2023-04-27T07:15:40.168Z,17703.33
2023-04-27T07:17:40.076Z,17959.17
2023-04-27T07:18:41.489Z,17936.67
2023-04-27T07:19:41.163Z,18015.83
2023-04-27T07:20:44.210Z,18188.33
2023-04-27T07:21:47.185Z,18340.83
2023-04-27T07:23:40.167Z,18180.83
2023-04-27T07:25:40.053Z,18138.33
2023-04-27T07:26:40.045Z,18116.67
2023-04-27T07:27:40.043Z,18167.5
2023-04-27T07:28:40.046Z,18122.5
2023-04-27T07:29:40.060Z,18124.17
2023-04-27T07:30:40.048Z,17993.33
2023-04-27T07:31:40.069Z,18243.33
2023-04-27T07:32:40.060Z,18083.33
2023-04-27T07:33:40.042Z,18011.67
2023-04-27T07:34:49.543Z,18005
2023-04-27T07:35:40.041Z,17913.33
2023-04-27T07:36:40.042Z,17783.33
2023-04-27T07:37:40.045Z,17550.83
2023-04-27T07:38:40.079Z,17473.33
2023-04-27T07:39:40.038Z,17520.83
2023-04-27T07:40:43.211Z,17432.5
2023-04-27T07:41:44.354Z,17370
2023-04-27T07:42:47.433Z,17270.83
2023-04-27T07:44:40.056Z,17139.17
2023-04-27T07:45:40.060Z,17120.83
2023-04-27T07:47:40.056Z,17120
2023-04-27T07:48:40.084Z,17143.33
2023-04-27T07:50:40.040Z,17096.67
2023-04-27T07:51:40.035Z,17065
2023-04-27T07:52:40.040Z,16999.17
2023-04-27T07:53:40.052Z,17077.5
2023-04-27T07:55:40.050Z,17056.67
2023-04-27T07:56:40.039Z,17013.33
2023-04-27T07:57:40.039Z,16925.83
2023-04-27T07:58:40.055Z,17040.83
2023-04-27T07:59:40.050Z,17195.83
2023-04-27T08:00:40.042Z,17252.5
2023-04-27T08:01:41.596Z,17370.83
2023-04-27T08:02:44.724Z,17496.67
2023-04-27T08:03:47.300Z,17561.67
2023-04-27T08:05:40.331Z,17684.17
2023-04-27T08:06:40.438Z,17792.5
2023-04-27T08:08:40.053Z,18122.5
2023-04-27T08:09:40.036Z,18205.83
2023-04-27T08:10:40.033Z,18382.5
2023-04-27T08:11:40.060Z,18515.83
2023-04-27T08:12:40.062Z,18785.83
2023-04-27T08:14:40.051Z,19177.5
2023-04-27T08:15:40.124Z,19220.83
2023-04-27T08:17:40.045Z,19155.83
2023-04-27T08:18:40.050Z,19687.5
2023-04-27T08:19:40.049Z,20010.83
2023-04-27T08:20:40.063Z,20320
2023-04-27T08:21:40.083Z,20553.33
2023-04-27T08:22:41.597Z,20717.5
2023-04-27T08:23:44.694Z,20805
2023-04-27T08:24:47.063Z,21121.67
2023-04-27T08:26:40.060Z,21763.33
2023-04-27T08:28:40.042Z,22430
2023-04-27T08:29:40.035Z,22674.17
2023-04-27T08:30:40.043Z,23016.67
2023-04-27T08:31:40.074Z,23260
2023-04-27T08:32:40.107Z,23242.5
2023-04-27T08:33:40.039Z,23419.17
2023-04-27T08:34:40.036Z,23484.17
2023-04-27T08:35:40.070Z,23553.33
2023-04-27T08:36:40.206Z,23615
2023-04-27T08:38:40.037Z,23865.83
2023-04-27T08:39:40.034Z,24156.67
2023-04-27T08:40:40.044Z,23985
2023-04-27T08:41:40.040Z,23833.33
2023-04-27T08:42:40.046Z,22162.5
2023-04-27T08:43:41.717Z,22530.83
2023-04-27T08:44:44.823Z,22511.67
2023-04-27T08:45:47.179Z,23180.83
2023-04-27T08:47:43.690Z,23361.67
2023-04-27T08:48:40.037Z,23840.83
2023-04-27T08:49:40.051Z,23872.5
2023-04-27T08:50:40.044Z,23973.33
2023-04-27T08:52:40.050Z,24245
2023-04-27T08:53:40.045Z,24031.67
2023-04-27T08:54:40.040Z,24026.67
2023-04-27T08:55:40.037Z,24015.83
2023-04-27T08:56:40.050Z,23970.83
2023-04-27T08:58:40.038Z,24173.33
2023-04-27T08:59:40.049Z,24248.33
2023-04-27T09:00:40.046Z,24160.83
2023-04-27T09:01:40.076Z,24230
2023-04-27T09:03:40.151Z,24116.67
2023-04-27T09:04:40.183Z,24304.17
2023-04-27T09:05:49.392Z,24400.83
2023-04-27T09:06:44.968Z,24562.5
2023-04-27T09:07:40.029Z,24755
2023-04-27T09:08:40.036Z,24800
2023-04-27T09:09:40.054Z,24755.83
2023-04-27T09:10:40.064Z,24787.5
2023-04-27T09:12:40.064Z,24885
2023-04-27T09:13:40.058Z,24979.17
2023-04-27T09:14:40.043Z,25096.67
2023-04-27T09:15:40.035Z,25189.17
2023-04-27T09:16:40.067Z,25286.67
2023-04-27T09:17:40.083Z,25334.17
2023-04-27T09:18:40.047Z,25577.5
2023-04-27T09:19:40.069Z,25530.83
2023-04-27T09:20:40.060Z,25509.17
2023-04-27T09:22:40.053Z,26035.83
2023-04-27T09:24:40.053Z,26122.5
2023-04-27T09:25:40.051Z,26151.67
2023-04-27T09:26:42.008Z,26206.67
2023-04-27T09:27:45.127Z,26306.67
2023-04-27T09:29:40.040Z,26383.33
2023-04-27T09:30:40.050Z,26555
2023-04-27T09:31:40.066Z,26561.67
2023-04-27T09:32:40.091Z,25770
2023-04-27T09:33:40.097Z,26466.67
2023-04-27T09:35:40.045Z,26764.17
2023-04-27T09:36:40.045Z,26580
2023-04-27T09:37:40.092Z,26741.67
2023-04-27T09:39:40.048Z,26799.17
2023-04-27T09:40:40.046Z,26872.5
2023-04-27T09:41:40.028Z,26414.17
2023-04-27T09:42:40.077Z,26832.5
2023-04-27T09:44:40.059Z,26811.67
2023-04-27T09:45:40.090Z,26804.17
2023-04-27T09:47:41.631Z,26922.5
2023-04-27T09:48:44.672Z,26996.67
2023-04-27T09:50:40.037Z,27015.83
2023-04-27T09:51:40.052Z,26775
2023-04-27T09:53:40.043Z,27171.67
2023-04-27T09:54:40.061Z,27279.17
2023-04-27T09:56:40.047Z,27436.67
2023-04-27T09:57:40.070Z,27406.67
2023-04-27T09:58:40.035Z,27415
2023-04-27T09:59:40.041Z,27427.5
2023-04-27T10:00:40.037Z,27587.5
2023-04-27T10:01:40.103Z,27945.83
2023-04-27T10:03:40.080Z,27215.83
2023-04-27T10:04:40.165Z,27423.33
2023-04-27T10:05:40.049Z,26933.33
2023-04-27T10:06:40.064Z,25665
2023-04-27T10:08:42.160Z,25896.67
2023-04-27T10:09:45.197Z,24580.83
2023-04-27T10:11:40.072Z,22298.33
2023-04-27T10:12:40.042Z,24489.17
2023-04-27T10:13:40.048Z,27770.83
2023-04-27T10:14:40.036Z,28409.17
2023-04-27T10:15:40.040Z,27193.33
2023-04-27T10:17:40.049Z,29199.17
2023-04-27T10:18:40.123Z,28085
2023-04-27T10:19:40.043Z,27148.33
2023-04-27T10:20:40.043Z,25288.33
2023-04-27T10:21:40.055Z,26116.67
2023-04-27T10:22:40.050Z,27108.33
2023-04-27T10:23:40.038Z,26165.83
2023-04-27T10:24:40.047Z,27420
2023-04-27T10:25:40.051Z,29715.83
2023-04-27T10:26:40.102Z,30264.17
2023-04-27T10:27:40.053Z,30967.5
2023-04-27T10:28:40.039Z,31148.33
2023-04-27T10:29:42.290Z,29822.5
2023-04-27T10:30:45.238Z,31585.83
2023-04-27T10:32:40.051Z,31680
2023-04-27T10:33:40.070Z,31680
2023-04-27T10:35:40.062Z,30413.33
2023-04-27T10:36:40.216Z,30864.17
2023-04-27T10:38:40.081Z,30565
2023-04-27T10:40:40.060Z,30005.83
2023-04-27T10:41:40.061Z,29626.67
2023-04-27T10:43:40.051Z,27754.17
2023-04-27T10:44:40.046Z,29205.83
2023-04-27T10:45:40.046Z,28656.67
2023-04-27T10:46:40.078Z,28686.67
2023-04-27T10:48:40.044Z,29820
2023-04-27T10:50:42.336Z,29553.33
2023-04-27T10:51:45.422Z,28794.17
2023-04-27T10:53:40.048Z,27268.33
2023-04-27T10:54:40.054Z,27001.67
2023-04-27T10:55:40.093Z,26723.33
2023-04-27T10:56:40.053Z,26723.33
2023-04-27T10:57:40.189Z,26723.33
2023-04-27T10:59:40.047Z,27595.83
2023-04-27T11:00:40.052Z,28908.33
2023-04-27T11:01:40.096Z,30070.83
2023-04-27T11:03:40.195Z,26039.17
2023-04-27T11:04:40.077Z,27083.33
2023-04-27T11:05:40.064Z,29314.17
2023-04-27T11:06:40.069Z,32338.33
2023-04-27T11:08:40.051Z,35871.66
2023-04-27T11:09:40.070Z,33585.83
2023-04-27T11:10:40.044Z,35904.16
2023-04-27T11:11:42.040Z,36829.16
2023-04-27T11:12:45.138Z,37776.66
2023-04-27T11:14:40.043Z,38415.83
2023-04-27T11:15:40.048Z,35510.83
2023-04-27T11:16:40.144Z,37872.5
2023-04-27T11:18:40.041Z,42436.8
2023-04-27T11:19:40.049Z,42048.67
2023-04-27T11:21:40.062Z,45110.55
2023-04-27T11:22:40.046Z,45743.05
2023-04-27T11:23:40.051Z,45451.95
2023-04-27T11:24:40.046Z,44794.3
2023-04-27T11:25:40.042Z,45471.72
2023-04-27T11:26:40.038Z,42935
2023-04-27T11:27:40.037Z,46291.09
2023-04-27T11:28:40.069Z,47841.8
2023-04-27T11:30:40.051Z,47038.59
2023-04-27T11:32:42.534Z,47356.64
2023-04-27T11:33:45.454Z,46292.89
2023-04-27T11:35:40.051Z,45469.92
2023-04-27T11:36:40.044Z,46528.28
2023-04-27T11:37:40.048Z,46711.56
2023-04-27T11:38:40.079Z,48001.72
2023-04-27T11:39:40.049Z,46409.69
2023-04-27T11:41:40.054Z,45795.16
2023-04-27T11:42:40.051Z,48684.53
2023-04-27T11:43:40.053Z,50120.23
2023-04-27T11:45:40.037Z,51886.56
2023-04-27T11:47:40.080Z,50718.59
2023-04-27T11:48:40.130Z,50544.29
2023-04-27T11:49:40.149Z,51243.28
2023-04-27T11:51:40.029Z,55359.92
2023-04-27T11:52:40.147Z,56687.81
2023-04-27T11:53:40.049Z,56258.36
2023-04-27T11:54:42.295Z,57338.28
2023-04-27T11:55:45.822Z,59305.86
2023-04-27T11:57:40.046Z,61988.59
2023-04-27T11:58:40.045Z,61165.62
2023-04-27T11:59:40.095Z,61758.59
2023-04-27T12:01:40.056Z,60730.78
2023-04-27T12:02:40.122Z,59864.68
2023-04-27T12:04:40.178Z,61629.21
2023-04-27T12:05:40.063Z,61602.26
2023-04-27T12:06:40.053Z,61516.01
2023-04-27T12:07:40.050Z,59778.43
2023-04-27T12:08:40.046Z,56928.59
2023-04-27T12:09:40.053Z,56358.98
2023-04-27T12:10:40.045Z,57728.2
2023-04-27T12:11:40.041Z,59774.84
2023-04-27T12:12:40.070Z,60991.32
2023-04-27T12:14:40.038Z,60702.03
2023-04-27T12:15:43.015Z,59837.73
2023-04-27T12:16:46.012Z,59830.54
2023-04-27T12:18:40.045Z,61248.28
2023-04-27T12:19:40.036Z,61979.61
2023-04-27T12:20:40.050Z,61183.59
2023-04-27T12:21:40.047Z,61571.71
2023-04-27T12:22:40.058Z,58863.82
2023-04-27T12:24:40.037Z,52750.86
2023-04-27T12:25:40.053Z,48907.34
2023-04-27T12:27:40.061Z,53340.23
2023-04-27T12:29:40.038Z,57938.43
2023-04-27T12:30:40.059Z,58614.06
2023-04-27T12:31:40.079Z,60145
2023-04-27T12:32:40.064Z,53546.87
2023-04-27T12:33:40.048Z,57471.25
2023-04-27T12:34:40.037Z,58700.31
2023-04-27T12:35:40.115Z,57390.39
2023-04-27T12:36:42.569Z,58542.18
2023-04-27T12:37:46.008Z,58802.73
2023-04-27T12:39:40.047Z,56583.59
2023-04-27T12:40:40.041Z,57936.64
2023-04-27T12:41:40.047Z,55156.87
2023-04-27T12:42:40.063Z,53890.07
2023-04-27T12:44:40.063Z,50007.03
2023-04-27T12:45:40.071Z,50659.29
2023-04-27T12:47:54.367Z,55347.34
2023-04-27T12:48:40.063Z,54355.46
2023-04-27T12:49:40.042Z,53922.42
2023-04-27T12:50:40.047Z,51969.21
2023-04-27T12:51:40.041Z,50549.68
2023-04-27T12:52:40.073Z,46442.03
2023-04-27T12:54:40.050Z,46179.69
2023-04-27T12:55:40.038Z,44215.7
2023-04-27T12:56:40.119Z,40668.67
2023-04-27T12:57:43.088Z,40174.53
2023-04-27T12:58:45.493Z,41824.06
2023-04-27T13:00:40.060Z,46495.94
2023-04-27T13:01:40.069Z,45829.3
2023-04-27T13:02:40.145Z,48007.11
2023-04-27T13:03:40.125Z,46677.42
2023-04-27T13:04:40.173Z,45511.25
2023-04-27T13:05:40.049Z,46129.38
2023-04-27T13:06:40.051Z,45775.39
2023-04-27T13:07:40.043Z,43464.61
2023-04-27T13:08:40.031Z,46742.11
2023-04-27T13:09:40.038Z,48763.59
2023-04-27T13:10:40.108Z,50910.86
2023-04-27T13:12:40.064Z,50393.36
2023-04-27T13:13:40.057Z,50398.75
2023-04-27T13:14:40.036Z,48627.03
2023-04-27T13:15:40.074Z,48456.33
2023-04-27T13:16:40.078Z,49318.82
2023-04-27T13:17:41.042Z,48822.89
2023-04-27T13:18:42.703Z,48337.73
2023-04-27T13:19:46.091Z,47101.48
2023-04-27T13:21:40.044Z,43886.88
2023-04-27T13:22:40.032Z,43187.89
2023-04-27T13:23:40.062Z,41978.59
2023-04-27T13:24:40.047Z,41491.64
2023-04-27T13:25:40.057Z,44070.16
2023-04-27T13:26:40.051Z,45732.27
2023-04-27T13:27:40.042Z,46465.39
2023-04-27T13:28:40.047Z,47022.42
2023-04-27T13:29:40.042Z,41002.89
2023-04-27T13:30:40.069Z,43473.59
2023-04-27T13:32:40.131Z,45725.08
2023-04-27T13:33:40.065Z,45631.64
2023-04-27T13:34:40.040Z,45209.38
2023-04-27T13:35:40.042Z,45886.8
2023-04-27T13:36:40.044Z,44930.86
2023-04-27T13:37:40.073Z,42336.17
2023-04-27T13:38:40.313Z,40586.02
2023-04-27T13:39:42.847Z,37462.5
2023-04-27T13:40:45.820Z,37590.83
2023-04-27T13:42:40.078Z,35519.16
2023-04-27T13:43:40.058Z,31293.33
2023-04-27T13:44:40.060Z,22182.5
2023-04-27T13:45:40.035Z,22687.5
2023-04-27T13:46:40.060Z,29835
2023-04-27T13:47:40.059Z,39795
2023-04-27T13:48:40.042Z,44138.44
2023-04-27T13:49:40.125Z,45133.91
2023-04-27T13:51:40.043Z,45468.12
2023-04-27T13:52:40.039Z,45083.59
2023-04-27T13:53:40.038Z,45628.05
2023-04-27T13:54:40.042Z,45126.72
2023-04-27T13:55:40.049Z,32790
2023-04-27T13:56:40.069Z,26851.67
2023-04-27T13:57:40.054Z,37845
2023-04-27T13:58:40.037Z,43495.16
2023-04-27T13:59:40.511Z,42832.11
2023-04-27T14:00:43.020Z,41651.56
2023-04-27T14:01:46.603Z,41058.59
2023-04-27T14:03:42.611Z,40086.48
2023-04-27T14:04:40.082Z,35978.33
2023-04-27T14:05:40.035Z,37179.16
2023-04-27T14:06:40.035Z,24544.17
2023-04-27T14:07:40.056Z,22244.17
2023-04-27T14:09:40.041Z,31860
2023-04-27T14:10:40.187Z,32619.17
2023-04-27T14:12:40.063Z,32829.16
2023-04-27T14:13:40.044Z,33305.83
2023-04-27T14:14:40.043Z,33666.66
2023-04-27T14:15:40.043Z,33761.66
2023-04-27T14:16:40.072Z,34828.33
2023-04-27T14:17:40.076Z,33310
2023-04-27T14:19:40.039Z,26370
2023-04-27T14:20:40.556Z,17644.17
2023-04-27T14:21:43.097Z,19162.5
2023-04-27T14:22:46.471Z,28362.5
2023-04-27T14:24:40.061Z,12382.5
2023-04-27T14:25:40.040Z,10463.33
2023-04-27T14:26:40.057Z,10203.33
2023-04-27T14:27:40.053Z,12678.33
2023-04-27T14:28:40.080Z,12308.33
2023-04-27T14:29:40.069Z,15240
2023-04-27T14:30:40.051Z,21380.83
2023-04-27T14:31:40.305Z,26724.17
2023-04-27T14:32:40.076Z,20724.17
2023-04-27T14:34:40.040Z,21512.5
2023-04-27T14:35:40.056Z,25570
2023-04-27T14:36:40.033Z,23968.33
2023-04-27T14:37:40.047Z,23920
2023-04-27T14:38:40.038Z,23855.83
2023-04-27T14:39:40.041Z,19924.17
2023-04-27T14:40:40.040Z,18824.17
2023-04-27T14:41:40.669Z,14570
2023-04-27T14:42:43.184Z,15188.33
2023-04-27T14:43:46.038Z,15925.83
2023-04-27T14:45:47.965Z,17154.17
2023-04-27T14:47:40.101Z,20342.5
2023-04-27T14:48:40.051Z,20626.67
2023-04-27T14:49:40.047Z,18436.67
2023-04-27T14:50:40.072Z,17167.5
2023-04-27T14:51:41.036Z,15282.5
2023-04-27T14:52:40.058Z,16681.67
2023-04-27T14:53:40.048Z,18206.67
2023-04-27T14:55:40.049Z,16752.5
2023-04-27T14:56:40.046Z,16016.67
2023-04-27T14:58:40.039Z,18726.67
2023-04-27T14:59:40.075Z,17738.33
2023-04-27T15:01:40.107Z,16188.33
2023-04-27T15:02:40.780Z,17334.17
2023-04-27T15:03:43.392Z,16250.83
2023-04-27T15:04:46.736Z,15746.67
2023-04-27T15:06:40.111Z,20526.67
2023-04-27T15:07:40.060Z,21130.83
2023-04-27T15:08:40.081Z,20425
2023-04-27T15:09:40.035Z,19751.67
2023-04-27T15:10:40.077Z,19337.5
2023-04-27T15:11:40.076Z,17557.5
2023-04-27T15:13:40.045Z,14185
2023-04-27T15:14:40.050Z,12838.33
2023-04-27T15:15:40.061Z,11631.67
2023-04-27T15:16:40.148Z,11285.83
2023-04-27T15:18:40.056Z,10810
2023-04-27T15:19:40.052Z,10670.83
2023-04-27T15:20:40.055Z,10525
2023-04-27T15:21:40.060Z,10537.5
2023-04-27T15:22:40.032Z,10883.33
2023-04-27T15:23:40.858Z,10554.17
2023-04-27T15:24:43.944Z,10180.83